sensor_id;sensor_type;location;lat;lon;timestamp;temperature;humidity
2062;DHT22;11070;51.336;12.340;2022-10-16T00:01:12;15.80;60.60
2062;DHT22;11070;51.336;12.340;2022-10-16T00:03:39;15.70;78.00
2062;DHT22;11070;51.336;12.340;2022-10-16T00:06:06;15.70;92.10
2062;DHT22;11070;51.336;12.340;2022-10-16T00:08:33;15.70;97.70
2062;DHT22;11070;51.336;12.340;2022-10-16T00:11:22;15.60;99.90
2062;DHT22;11070;51.336;12.340;2022-10-16T00:13:50;15.60;99.90
2062;DHT22;11070;51.336;12.340;2022-10-16T00:16:17;15.60;99.90
2062;DHT22;11070;51.336;12.340;2022-10-16T00:18:43;15.60;99.90
2062;DHT22;11070;51.336;12.340;2022-10-16T00:21:10;15.60;99.90
2062;DHT22;11070;51.336;12.340;2022-10-16T00:23:36;15.60;99.90
2062;DHT22;11070;51.336;12.340;2022-10-16T00:26:05;15.60;99.90
2062;DHT22;11070;51.336;12.340;2022-10-16T00:28:31;15.60;99.90
2062;DHT22;11070;51.336;12.340;2022-10-16T00:30:57;15.60;99.90
2062;DHT22;11070;51.336;12.340;2022-10-16T00:33:23;15.60;99.90
2062;DHT22;11070;51.336;12.340;2022-10-16T00:35:49;15.70;99.90
2062;DHT22;11070;51.336;12.340;2022-10-16T00:38:16;15.70;99.70
2062;DHT22;11070;51.336;12.340;2022-10-16T00:40:42;15.70;96.50
2062;DHT22;11070;51.336;12.340;2022-10-16T00:49:11;15.70;98.70
2062;DHT22;11070;51.336;12.340;2022-10-16T00:51:46;15.60;99.50
2062;DHT22;11070;51.336;12.340;2022-10-16T00:54:28;15.70;99.90
2062;DHT22;11070;51.336;12.340;2022-10-16T00:56:55;15.70;99.90
2062;DHT22;11070;51.336;12.340;2022-10-16T00:59:33;15.70;99.90
2062;DHT22;11070;51.336;12.340;2022-10-16T01:02:00;15.70;99.90
2062;DHT22;11070;51.336;12.340;2022-10-16T01:04:26;15.60;99.90
2062;DHT22;11070;51.336;12.340;2022-10-16T01:12:15;15.60;99.90
2062;DHT22;11070;51.336;12.340;2022-10-16T01:17:35;15.60;99.90
2062;DHT22;11070;51.336;12.340;2022-10-16T01:20:26;15.60;99.90
2062;DHT22;11070;51.336;12.340;2022-10-16T01:28:23;15.60;99.90
2062;DHT22;11070;51.336;12.340;2022-10-16T01:30:53;15.60;99.90
2062;DHT22;11070;51.336;12.340;2022-10-16T01:33:26;15.60;99.90
2062;DHT22;11070;51.336;12.340;2022-10-16T01:35:58;15.60;99.90
2062;DHT22;11070;51.336;12.340;2022-10-16T01:40:53;15.50;99.90
2062;DHT22;11070;51.336;12.340;2022-10-16T01:43:31;15.50;99.90
2062;DHT22;11070;51.336;12.340;2022-10-16T01:45:59;15.50;99.90
2062;DHT22;11070;51.336;12.340;2022-10-16T01:48:25;15.50;99.90
2062;DHT22;11070;51.336;12.340;2022-10-16T01:51:02;15.50;99.90
2062;DHT22;11070;51.336;12.340;2022-10-16T01:53:29;15.50;99.90
2062;DHT22;11070;51.336;12.340;2022-10-16T01:55:58;15.40;99.90
2062;DHT22;11070;51.336;12.340;2022-10-16T01:58:25;15.50;99.90
2062;DHT22;11070;51.336;12.340;2022-10-16T02:00:54;15.40;99.90
2062;DHT22;11070;51.336;12.340;2022-10-16T02:03:21;15.40;99.90
2062;DHT22;11070;51.336;12.340;2022-10-16T02:05:58;15.40;99.90
2062;DHT22;11070;51.336;12.340;2022-10-16T02:08:26;15.40;99.90
2062;DHT22;11070;51.336;12.340;2022-10-16T02:10:55;15.30;99.90
2062;DHT22;11070;51.336;12.340;2022-10-16T02:15:56;15.20;99.90
2062;DHT22;11070;51.336;12.340;2022-10-16T02:18:21;15.20;99.90
2062;DHT22;11070;51.336;12.340;2022-10-16T02:25:58;15.20;99.90
2062;DHT22;11070;51.336;12.340;2022-10-16T02:28:31;15.20;99.90
2062;DHT22;11070;51.336;12.340;2022-10-16T02:31:03;15.30;99.90
2062;DHT22;11070;51.336;12.340;2022-10-16T02:33:31;15.20;99.90
2062;DHT22;11070;51.336;12.340;2022-10-16T02:35:59;15.20;99.90
2062;DHT22;11070;51.336;12.340;2022-10-16T02:38:25;15.20;99.90
2062;DHT22;11070;51.336;12.340;2022-10-16T02:40:51;15.10;99.90
2062;DHT22;11070;51.336;12.340;2022-10-16T02:43:17;15.20;99.90
2062;DHT22;11070;51.336;12.340;2022-10-16T02:45:43;15.20;99.90
2062;DHT22;11070;51.336;12.340;2022-10-16T02:48:09;15.10;99.90
2062;DHT22;11070;51.336;12.340;2022-10-16T02:50:35;15.10;99.90
2062;DHT22;11070;51.336;12.340;2022-10-16T02:53:01;15.00;99.90
2062;DHT22;11070;51.336;12.340;2022-10-16T02:55:26;15.00;99.90
2062;DHT22;11070;51.336;12.340;2022-10-16T02:57:53;15.00;99.90
2062;DHT22;11070;51.336;12.340;2022-10-16T03:00:19;15.00;99.90
2062;DHT22;11070;51.336;12.340;2022-10-16T03:02:45;15.00;99.90
2062;DHT22;11070;51.336;12.340;2022-10-16T03:05:12;15.00;99.90
2062;DHT22;11070;51.336;12.340;2022-10-16T03:07:38;15.00;99.90
2062;DHT22;11070;51.336;12.340;2022-10-16T03:10:04;15.00;99.90
2062;DHT22;11070;51.336;12.340;2022-10-16T03:12:30;15.00;99.90
2062;DHT22;11070;51.336;12.340;2022-10-16T03:14:56;15.00;99.90
2062;DHT22;11070;51.336;12.340;2022-10-16T03:17:22;15.00;99.90
2062;DHT22;11070;51.336;12.340;2022-10-16T03:19:48;14.90;99.90
2062;DHT22;11070;51.336;12.340;2022-10-16T03:22:14;14.90;99.90
2062;DHT22;11070;51.336;12.340;2022-10-16T03:24:40;14.90;99.90
2062;DHT22;11070;51.336;12.340;2022-10-16T03:27:06;14.90;99.90
2062;DHT22;11070;51.336;12.340;2022-10-16T03:29:32;14.80;99.90
2062;DHT22;11070;51.336;12.340;2022-10-16T03:31:58;14.80;99.90
2062;DHT22;11070;51.336;12.340;2022-10-16T03:34:24;14.80;99.90
2062;DHT22;11070;51.336;12.340;2022-10-16T03:36:50;14.80;99.90
2062;DHT22;11070;51.336;12.340;2022-10-16T03:39:16;14.70;99.90
2062;DHT22;11070;51.336;12.340;2022-10-16T03:41:42;14.70;99.90
2062;DHT22;11070;51.336;12.340;2022-10-16T03:44:07;14.70;99.90
2062;DHT22;11070;51.336;12.340;2022-10-16T03:46:33;14.70;99.90
2062;DHT22;11070;51.336;12.340;2022-10-16T03:48:58;14.70;99.90
2062;DHT22;11070;51.336;12.340;2022-10-16T03:51:24;14.70;99.90
2062;DHT22;11070;51.336;12.340;2022-10-16T03:53:50;14.70;99.90
2062;DHT22;11070;51.336;12.340;2022-10-16T03:56:15;14.70;99.90
2062;DHT22;11070;51.336;12.340;2022-10-16T03:58:41;14.70;99.90
2062;DHT22;11070;51.336;12.340;2022-10-16T04:01:06;14.70;99.90
2062;DHT22;11070;51.336;12.340;2022-10-16T04:03:32;14.70;99.90
2062;DHT22;11070;51.336;12.340;2022-10-16T04:05:58;14.70;99.90
2062;DHT22;11070;51.336;12.340;2022-10-16T04:08:24;14.70;99.90
2062;DHT22;11070;51.336;12.340;2022-10-16T04:10:49;14.70;99.90
2062;DHT22;11070;51.336;12.340;2022-10-16T04:13:15;14.80;99.90
2062;DHT22;11070;51.336;12.340;2022-10-16T04:15:41;14.80;99.90
2062;DHT22;11070;51.336;12.340;2022-10-16T04:18:07;14.80;99.90
2062;DHT22;11070;51.336;12.340;2022-10-16T04:20:33;14.80;99.90
2062;DHT22;11070;51.336;12.340;2022-10-16T04:22:59;14.70;99.90
2062;DHT22;11070;51.336;12.340;2022-10-16T04:25:24;14.70;99.90
2062;DHT22;11070;51.336;12.340;2022-10-16T04:27:52;14.60;99.90
2062;DHT22;11070;51.336;12.340;2022-10-16T04:30:18;14.60;99.90
2062;DHT22;11070;51.336;12.340;2022-10-16T04:32:48;14.50;99.90
2062;DHT22;11070;51.336;12.340;2022-10-16T04:35:14;14.50;99.90
2062;DHT22;11070;51.336;12.340;2022-10-16T04:37:39;14.50;99.90
2062;DHT22;11070;51.336;12.340;2022-10-16T04:40:05;14.50;99.90
2062;DHT22;11070;51.336;12.340;2022-10-16T04:42:31;14.50;99.90
2062;DHT22;11070;51.336;12.340;2022-10-16T04:44:57;14.50;99.90
2062;DHT22;11070;51.336;12.340;2022-10-16T04:47:23;14.50;99.90
2062;DHT22;11070;51.336;12.340;2022-10-16T04:49:48;14.50;99.90
2062;DHT22;11070;51.336;12.340;2022-10-16T04:52:14;14.50;99.90
2062;DHT22;11070;51.336;12.340;2022-10-16T04:54:40;14.50;99.90
2062;DHT22;11070;51.336;12.340;2022-10-16T04:57:05;14.50;99.90
2062;DHT22;11070;51.336;12.340;2022-10-16T04:59:31;14.50;99.90
2062;DHT22;11070;51.336;12.340;2022-10-16T05:01:57;14.50;99.90
2062;DHT22;11070;51.336;12.340;2022-10-16T05:04:23;14.50;99.90
2062;DHT22;11070;51.336;12.340;2022-10-16T05:06:49;14.60;99.90
2062;DHT22;11070;51.336;12.340;2022-10-16T05:09:14;14.60;99.90
2062;DHT22;11070;51.336;12.340;2022-10-16T05:11:40;14.60;99.90
2062;DHT22;11070;51.336;12.340;2022-10-16T05:14:05;14.60;99.90
2062;DHT22;11070;51.336;12.340;2022-10-16T05:16:31;14.60;99.90
2062;DHT22;11070;51.336;12.340;2022-10-16T05:18:57;14.60;99.90
2062;DHT22;11070;51.336;12.340;2022-10-16T05:21:22;14.60;99.90
2062;DHT22;11070;51.336;12.340;2022-10-16T05:23:48;14.60;99.90
2062;DHT22;11070;51.336;12.340;2022-10-16T05:26:14;14.60;99.90
2062;DHT22;11070;51.336;12.340;2022-10-16T05:28:39;14.60;99.90
2062;DHT22;11070;51.336;12.340;2022-10-16T05:31:06;14.60;99.90
2062;DHT22;11070;51.336;12.340;2022-10-16T05:33:32;14.60;99.90
2062;DHT22;11070;51.336;12.340;2022-10-16T05:36:05;14.60;99.90
2062;DHT22;11070;51.336;12.340;2022-10-16T05:38:32;14.50;99.90
2062;DHT22;11070;51.336;12.340;2022-10-16T05:40:58;14.60;99.90
2062;DHT22;11070;51.336;12.340;2022-10-16T05:43:24;14.60;99.90
2062;DHT22;11070;51.336;12.340;2022-10-16T05:45:57;14.60;99.90
2062;DHT22;11070;51.336;12.340;2022-10-16T05:48:24;14.60;99.90
2062;DHT22;11070;51.336;12.340;2022-10-16T05:51:11;14.60;99.90
2062;DHT22;11070;51.336;12.340;2022-10-16T05:53:38;14.60;99.90
2062;DHT22;11070;51.336;12.340;2022-10-16T05:56:05;14.60;99.90
2062;DHT22;11070;51.336;12.340;2022-10-16T05:58:36;14.60;99.90
2062;DHT22;11070;51.336;12.340;2022-10-16T06:01:05;14.70;99.90
2062;DHT22;11070;51.336;12.340;2022-10-16T06:03:34;14.80;99.90
2062;DHT22;11070;51.336;12.340;2022-10-16T06:06:40;14.90;99.90
2062;DHT22;11070;51.336;12.340;2022-10-16T06:08:59;15.20;99.90
2062;DHT22;11070;51.336;12.340;2022-10-16T06:11:28;15.30;99.90
2062;DHT22;11070;51.336;12.340;2022-10-16T06:13:58;15.30;99.90
2062;DHT22;11070;51.336;12.340;2022-10-16T06:16:25;15.30;99.90
2062;DHT22;11070;51.336;12.340;2022-10-16T06:18:52;15.40;99.90
2062;DHT22;11070;51.336;12.340;2022-10-16T06:21:20;15.40;99.90
2062;DHT22;11070;51.336;12.340;2022-10-16T06:23:47;15.50;99.90
2062;DHT22;11070;51.336;12.340;2022-10-16T06:26:15;15.60;99.90
2062;DHT22;11070;51.336;12.340;2022-10-16T06:28:41;15.50;99.90
2062;DHT22;11070;51.336;12.340;2022-10-16T06:31:09;15.60;99.90
2062;DHT22;11070;51.336;12.340;2022-10-16T06:33:35;15.60;99.90
2062;DHT22;11070;51.336;12.340;2022-10-16T06:36:06;15.70;99.90
2062;DHT22;11070;51.336;12.340;2022-10-16T06:38:33;15.90;99.90
2062;DHT22;11070;51.336;12.340;2022-10-16T06:40:59;16.30;99.90
2062;DHT22;11070;51.336;12.340;2022-10-16T06:43:26;16.40;99.90
2062;DHT22;11070;51.336;12.340;2022-10-16T06:45:53;16.20;99.90
2062;DHT22;11070;51.336;12.340;2022-10-16T06:48:19;16.10;99.90
2062;DHT22;11070;51.336;12.340;2022-10-16T06:51:04;16.00;99.90
2062;DHT22;11070;51.336;12.340;2022-10-16T06:53:33;16.00;99.90
2062;DHT22;11070;51.336;12.340;2022-10-16T06:56:07;16.00;99.90
2062;DHT22;11070;51.336;12.340;2022-10-16T06:58:32;16.00;99.90
2062;DHT22;11070;51.336;12.340;2022-10-16T07:00:58;15.90;99.90
2062;DHT22;11070;51.336;12.340;2022-10-16T07:03:23;15.90;99.90
2062;DHT22;11070;51.336;12.340;2022-10-16T07:05:49;16.00;99.90
2062;DHT22;11070;51.336;12.340;2022-10-16T07:08:15;16.00;99.90
2062;DHT22;11070;51.336;12.340;2022-10-16T07:10:40;16.00;99.90
2062;DHT22;11070;51.336;12.340;2022-10-16T07:13:06;16.00;99.90
2062;DHT22;11070;51.336;12.340;2022-10-16T07:15:33;16.10;99.90
2062;DHT22;11070;51.336;12.340;2022-10-16T07:17:59;16.10;99.90
2062;DHT22;11070;51.336;12.340;2022-10-16T07:20:25;16.20;99.90
2062;DHT22;11070;51.336;12.340;2022-10-16T07:22:51;16.20;99.90
2062;DHT22;11070;51.336;12.340;2022-10-16T07:25:17;16.30;99.90
2062;DHT22;11070;51.336;12.340;2022-10-16T07:27:43;16.40;99.90
2062;DHT22;11070;51.336;12.340;2022-10-16T07:30:09;16.40;99.90
2062;DHT22;11070;51.336;12.340;2022-10-16T07:32:34;16.40;99.90
2062;DHT22;11070;51.336;12.340;2022-10-16T07:35:00;16.50;99.90
2062;DHT22;11070;51.336;12.340;2022-10-16T07:37:26;16.50;99.90
2062;DHT22;11070;51.336;12.340;2022-10-16T07:39:51;16.60;99.90
2062;DHT22;11070;51.336;12.340;2022-10-16T07:42:17;16.70;99.90
2062;DHT22;11070;51.336;12.340;2022-10-16T07:44:43;16.90;99.90
2062;DHT22;11070;51.336;12.340;2022-10-16T07:47:09;16.90;99.90
2062;DHT22;11070;51.336;12.340;2022-10-16T07:49:35;17.10;99.90
2062;DHT22;11070;51.336;12.340;2022-10-16T07:52:00;17.50;99.90
2062;DHT22;11070;51.336;12.340;2022-10-16T07:54:26;17.80;99.90
2062;DHT22;11070;51.336;12.340;2022-10-16T07:56:52;17.70;99.90
2062;DHT22;11070;51.336;12.340;2022-10-16T07:59:17;17.80;99.90
2062;DHT22;11070;51.336;12.340;2022-10-16T08:01:43;18.20;99.90
2062;DHT22;11070;51.336;12.340;2022-10-16T08:04:09;18.90;99.90
2062;DHT22;11070;51.336;12.340;2022-10-16T08:06:36;19.40;15.50
2062;DHT22;11070;51.336;12.340;2022-10-16T08:09:03;19.20;1.00
2062;DHT22;11070;51.336;12.340;2022-10-16T08:11:29;21.50;1.00
2062;DHT22;11070;51.336;12.340;2022-10-16T08:13:54;22.50;99.90
2062;DHT22;11070;51.336;12.340;2022-10-16T08:16:20;22.90;99.90
2062;DHT22;11070;51.336;12.340;2022-10-16T08:18:46;22.70;1.00
2062;DHT22;11070;51.336;12.340;2022-10-16T08:21:17;23.10;1.00
2062;DHT22;11070;51.336;12.340;2022-10-16T08:23:43;22.30;1.00
2062;DHT22;11070;51.336;12.340;2022-10-16T08:26:10;20.90;99.90
2062;DHT22;11070;51.336;12.340;2022-10-16T08:28:36;20.00;1.00
2062;DHT22;11070;51.336;12.340;2022-10-16T08:31:20;19.30;1.00
2062;DHT22;11070;51.336;12.340;2022-10-16T08:33:46;18.80;99.90
2062;DHT22;11070;51.336;12.340;2022-10-16T08:36:13;18.80;99.90
2062;DHT22;11070;51.336;12.340;2022-10-16T08:38:39;18.80;1.00
2062;DHT22;11070;51.336;12.340;2022-10-16T08:49:02;18.50;1.00
2062;DHT22;11070;51.336;12.340;2022-10-16T08:51:37;18.40;1.00
2062;DHT22;11070;51.336;12.340;2022-10-16T08:54:39;18.50;99.90
2062;DHT22;11070;51.336;12.340;2022-10-16T08:57:16;18.90;99.90
2062;DHT22;11070;51.336;12.340;2022-10-16T08:59:42;19.70;99.90
2062;DHT22;11070;51.336;12.340;2022-10-16T09:02:37;19.90;1.00
2062;DHT22;11070;51.336;12.340;2022-10-16T09:05:20;20.10;99.90
2062;DHT22;11070;51.336;12.340;2022-10-16T09:08:06;19.90;18.60
2062;DHT22;11070;51.336;12.340;2022-10-16T09:14:28;20.10;1.00
2062;DHT22;11070;51.336;12.340;2022-10-16T09:17:03;21.00;1.00
2062;DHT22;11070;51.336;12.340;2022-10-16T09:19:36;22.00;99.90
2062;DHT22;11070;51.336;12.340;2022-10-16T09:22:12;21.50;49.00
2062;DHT22;11070;51.336;12.340;2022-10-16T09:24:39;22.00;8.30
2062;DHT22;11070;51.336;12.340;2022-10-16T09:27:11;21.50;1.00
2062;DHT22;11070;51.336;12.340;2022-10-16T09:29:38;21.00;99.90
2062;DHT22;11070;51.336;12.340;2022-10-16T09:32:16;21.10;99.90
2062;DHT22;11070;51.336;12.340;2022-10-16T09:34:47;22.30;99.10
2062;DHT22;11070;51.336;12.340;2022-10-16T09:37:18;22.70;1.00
2062;DHT22;11070;51.336;12.340;2022-10-16T09:39:51;22.60;1.00
2062;DHT22;11070;51.336;12.340;2022-10-16T09:42:27;22.70;1.00
2062;DHT22;11070;51.336;12.340;2022-10-16T09:44:56;22.80;1.00
2062;DHT22;11070;51.336;12.340;2022-10-16T09:47:26;23.90;1.00
2062;DHT22;11070;51.336;12.340;2022-10-16T09:49:58;23.60;1.00
2062;DHT22;11070;51.336;12.340;2022-10-16T09:52:27;22.10;1.00
2062;DHT22;11070;51.336;12.340;2022-10-16T09:54:58;20.80;99.90
2062;DHT22;11070;51.336;12.340;2022-10-16T09:57:24;20.40;1.00
2062;DHT22;11070;51.336;12.340;2022-10-16T09:59:55;20.30;99.90
2062;DHT22;11070;51.336;12.340;2022-10-16T10:02:34;20.00;99.90
2062;DHT22;11070;51.336;12.340;2022-10-16T10:05:00;19.80;99.90
2062;DHT22;11070;51.336;12.340;2022-10-16T10:07:39;20.10;1.00
2062;DHT22;11070;51.336;12.340;2022-10-16T10:10:20;20.40;99.90
2062;DHT22;11070;51.336;12.340;2022-10-16T10:12:47;21.40;1.00
2062;DHT22;11070;51.336;12.340;2022-10-16T10:15:13;21.60;99.90
2062;DHT22;11070;51.336;12.340;2022-10-16T10:17:50;21.40;99.90
2062;DHT22;11070;51.336;12.340;2022-10-16T10:20:28;20.90;99.90
2062;DHT22;11070;51.336;12.340;2022-10-16T10:22:55;20.70;1.00
2062;DHT22;11070;51.336;12.340;2022-10-16T10:25:53;20.60;90.10
2062;DHT22;11070;51.336;12.340;2022-10-16T10:31:27;20.20;1.00
2062;DHT22;11070;51.336;12.340;2022-10-16T10:34:20;20.40;99.90
2062;DHT22;11070;51.336;12.340;2022-10-16T10:37:18;20.50;99.90
2062;DHT22;11070;51.336;12.340;2022-10-16T10:39:59;20.60;99.90
2062;DHT22;11070;51.336;12.340;2022-10-16T10:42:34;20.70;99.90
2062;DHT22;11070;51.336;12.340;2022-10-16T10:50:51;20.40;99.90
2062;DHT22;11070;51.336;12.340;2022-10-16T10:53:39;20.30;99.90
2062;DHT22;11070;51.336;12.340;2022-10-16T10:56:47;20.20;99.90
2062;DHT22;11070;51.336;12.340;2022-10-16T11:07:32;20.40;99.90
2062;DHT22;11070;51.336;12.340;2022-10-16T11:10:15;20.40;99.90
2062;DHT22;11070;51.336;12.340;2022-10-16T11:12:48;20.50;99.90
2062;DHT22;11070;51.336;12.340;2022-10-16T11:15:29;20.40;99.90
2062;DHT22;11070;51.336;12.340;2022-10-16T11:18:22;20.40;99.90
2062;DHT22;11070;51.336;12.340;2022-10-16T11:21:06;20.40;99.90
2062;DHT22;11070;51.336;12.340;2022-10-16T11:24:00;20.50;1.00
2062;DHT22;11070;51.336;12.340;2022-10-16T11:26:30;20.50;99.90
2062;DHT22;11070;51.336;12.340;2022-10-16T11:28:59;20.50;99.90
2062;DHT22;11070;51.336;12.340;2022-10-16T11:34:15;20.50;1.00
2062;DHT22;11070;51.336;12.340;2022-10-16T11:36:55;20.60;99.90
2062;DHT22;11070;51.336;12.340;2022-10-16T11:39:27;20.60;99.90
2062;DHT22;11070;51.336;12.340;2022-10-16T11:42:13;20.50;99.90
2062;DHT22;11070;51.336;12.340;2022-10-16T11:44:55;20.60;99.90
2062;DHT22;11070;51.336;12.340;2022-10-16T11:50:36;20.60;99.90
2062;DHT22;11070;51.336;12.340;2022-10-16T11:53:22;20.70;99.90
2062;DHT22;11070;51.336;12.340;2022-10-16T11:55:49;20.80;99.90
2062;DHT22;11070;51.336;12.340;2022-10-16T11:58:37;20.80;17.70
2062;DHT22;11070;51.336;12.340;2022-10-16T12:01:17;20.90;1.00
2062;DHT22;11070;51.336;12.340;2022-10-16T12:03:59;20.90;31.20
2062;DHT22;11070;51.336;12.340;2022-10-16T12:09:22;21.10;1.00
2062;DHT22;11070;51.336;12.340;2022-10-16T12:11:48;21.00;1.00
2062;DHT22;11070;51.336;12.340;2022-10-16T12:19:58;20.90;86.70
2062;DHT22;11070;51.336;12.340;2022-10-16T12:22:27;20.70;99.90
2062;DHT22;11070;51.336;12.340;2022-10-16T12:24:54;20.70;1.00
2062;DHT22;11070;51.336;12.340;2022-10-16T12:27:31;20.60;1.00
2062;DHT22;11070;51.336;12.340;2022-10-16T12:29:59;20.50;1.00
2062;DHT22;11070;51.336;12.340;2022-10-16T12:32:37;20.50;99.90
2062;DHT22;11070;51.336;12.340;2022-10-16T12:35:16;20.50;99.90
2062;DHT22;11070;51.336;12.340;2022-10-16T12:37:42;20.70;17.40
2062;DHT22;11070;51.336;12.340;2022-10-16T12:40:31;20.90;1.00
2062;DHT22;11070;51.336;12.340;2022-10-16T12:42:57;21.30;99.90
2062;DHT22;11070;51.336;12.340;2022-10-16T12:45:27;21.30;1.00
2062;DHT22;11070;51.336;12.340;2022-10-16T12:47:54;21.30;1.00
2062;DHT22;11070;51.336;12.340;2022-10-16T12:52:49;21.00;99.90
2062;DHT22;11070;51.336;12.340;2022-10-16T12:55:18;20.80;1.00
2062;DHT22;11070;51.336;12.340;2022-10-16T13:03:14;20.50;22.30
2062;DHT22;11070;51.336;12.340;2022-10-16T13:14:28;21.30;1.00
2062;DHT22;11070;51.336;12.340;2022-10-16T13:22:33;22.20;99.90
2062;DHT22;11070;51.336;12.340;2022-10-16T13:25:34;23.10;1.00
2062;DHT22;11070;51.336;12.340;2022-10-16T13:28:07;23.90;1.00
2062;DHT22;11070;51.336;12.340;2022-10-16T13:30:44;24.80;1.00
2062;DHT22;11070;51.336;12.340;2022-10-16T13:33:24;24.50;1.00
2062;DHT22;11070;51.336;12.340;2022-10-16T13:35:55;23.70;1.00
2062;DHT22;11070;51.336;12.340;2022-10-16T13:38:27;23.30;1.00
2062;DHT22;11070;51.336;12.340;2022-10-16T13:41:01;23.90;1.00
2062;DHT22;11070;51.336;12.340;2022-10-16T13:43:39;24.90;1.00
2062;DHT22;11070;51.336;12.340;2022-10-16T13:46:12;24.60;1.00
2062;DHT22;11070;51.336;12.340;2022-10-16T13:48:38;24.60;1.00
2062;DHT22;11070;51.336;12.340;2022-10-16T13:51:16;24.10;1.00
2062;DHT22;11070;51.336;12.340;2022-10-16T13:53:43;23.70;1.00
2062;DHT22;11070;51.336;12.340;2022-10-16T13:56:14;23.00;1.00
2062;DHT22;11070;51.336;12.340;2022-10-16T13:58:40;22.50;1.00
2062;DHT22;11070;51.336;12.340;2022-10-16T14:01:26;22.00;1.00
2062;DHT22;11070;51.336;12.340;2022-10-16T14:04:00;21.70;99.90
2062;DHT22;11070;51.336;12.340;2022-10-16T14:06:27;21.60;99.90
2062;DHT22;11070;51.336;12.340;2022-10-16T14:09:20;21.50;99.90
2062;DHT22;11070;51.336;12.340;2022-10-16T14:11:50;21.10;1.00
2062;DHT22;11070;51.336;12.340;2022-10-16T14:14:18;20.80;1.00
2062;DHT22;11070;51.336;12.340;2022-10-16T14:16:44;20.70;99.90
2062;DHT22;11070;51.336;12.340;2022-10-16T14:19:29;20.70;99.90
2062;DHT22;11070;51.336;12.340;2022-10-16T14:21:56;20.60;1.00
2062;DHT22;11070;51.336;12.340;2022-10-16T14:24:33;20.60;1.00
2062;DHT22;11070;51.336;12.340;2022-10-16T14:27:00;20.50;1.00
2062;DHT22;11070;51.336;12.340;2022-10-16T14:29:27;20.60;1.00
2062;DHT22;11070;51.336;12.340;2022-10-16T14:32:05;20.60;1.00
2062;DHT22;11070;51.336;12.340;2022-10-16T14:34:34;20.40;1.00
2062;DHT22;11070;51.336;12.340;2022-10-16T14:39:33;20.70;1.00
2062;DHT22;11070;51.336;12.340;2022-10-16T14:41:59;20.80;99.90
2062;DHT22;11070;51.336;12.340;2022-10-16T14:44:31;20.90;99.90
2062;DHT22;11070;51.336;12.340;2022-10-16T14:47:05;21.10;99.90
2062;DHT22;11070;51.336;12.340;2022-10-16T14:49:32;21.20;1.00
2062;DHT22;11070;51.336;12.340;2022-10-16T14:51:58;21.30;1.00
2062;DHT22;11070;51.336;12.340;2022-10-16T14:54:24;21.40;1.00
2062;DHT22;11070;51.336;12.340;2022-10-16T14:56:56;21.40;1.00
2062;DHT22;11070;51.336;12.340;2022-10-16T14:59:34;21.50;1.00
2062;DHT22;11070;51.336;12.340;2022-10-16T15:02:27;21.60;1.00
2062;DHT22;11070;51.336;12.340;2022-10-16T15:04:54;22.10;99.90
2062;DHT22;11070;51.336;12.340;2022-10-16T15:07:21;22.10;99.90
2062;DHT22;11070;51.336;12.340;2022-10-16T15:09:47;22.20;99.90
2062;DHT22;11070;51.336;12.340;2022-10-16T15:12:13;22.00;99.90
2062;DHT22;11070;51.336;12.340;2022-10-16T15:14:38;21.80;99.90
2062;DHT22;11070;51.336;12.340;2022-10-16T15:17:04;21.90;99.90
2062;DHT22;11070;51.336;12.340;2022-10-16T15:19:30;21.80;99.90
2062;DHT22;11070;51.336;12.340;2022-10-16T15:21:56;21.50;1.00
2062;DHT22;11070;51.336;12.340;2022-10-16T15:24:22;21.00;99.90
2062;DHT22;11070;51.336;12.340;2022-10-16T15:26:48;20.60;99.90
2062;DHT22;11070;51.336;12.340;2022-10-16T15:29:15;20.30;99.90
2062;DHT22;11070;51.336;12.340;2022-10-16T15:31:41;20.00;1.00
2062;DHT22;11070;51.336;12.340;2022-10-16T15:34:10;19.80;1.00
2062;DHT22;11070;51.336;12.340;2022-10-16T15:36:40;19.70;1.00
2062;DHT22;11070;51.336;12.340;2022-10-16T15:39:15;19.60;1.00
2062;DHT22;11070;51.336;12.340;2022-10-16T15:41:42;19.60;99.90
2062;DHT22;11070;51.336;12.340;2022-10-16T15:44:09;19.50;99.90
2062;DHT22;11070;51.336;12.340;2022-10-16T15:46:34;19.40;99.90
2062;DHT22;11070;51.336;12.340;2022-10-16T15:49:01;19.40;99.90
2062;DHT22;11070;51.336;12.340;2022-10-16T15:51:27;19.40;99.90
2062;DHT22;11070;51.336;12.340;2022-10-16T15:53:57;19.40;99.90
2062;DHT22;11070;51.336;12.340;2022-10-16T15:56:23;19.40;99.90
2062;DHT22;11070;51.336;12.340;2022-10-16T15:58:51;19.40;99.90
2062;DHT22;11070;51.336;12.340;2022-10-16T16:01:17;19.40;99.90
2062;DHT22;11070;51.336;12.340;2022-10-16T16:03:43;19.40;99.90
2062;DHT22;11070;51.336;12.340;2022-10-16T16:06:11;19.30;99.90
2062;DHT22;11070;51.336;12.340;2022-10-16T16:08:38;19.30;99.90
2062;DHT22;11070;51.336;12.340;2022-10-16T16:11:10;19.20;99.90
2062;DHT22;11070;51.336;12.340;2022-10-16T16:13:36;19.20;99.90
2062;DHT22;11070;51.336;12.340;2022-10-16T16:16:07;19.20;99.90
2062;DHT22;11070;51.336;12.340;2022-10-16T16:18:33;19.20;99.90
2062;DHT22;11070;51.336;12.340;2022-10-16T16:20:59;19.20;99.90
2062;DHT22;11070;51.336;12.340;2022-10-16T16:23:24;19.20;99.90
2062;DHT22;11070;51.336;12.340;2022-10-16T16:26:26;19.20;99.90
2062;DHT22;11070;51.336;12.340;2022-10-16T16:28:54;19.20;1.00
2062;DHT22;11070;51.336;12.340;2022-10-16T16:31:24;19.20;1.00
2062;DHT22;11070;51.336;12.340;2022-10-16T16:33:50;19.10;1.00
2062;DHT22;11070;51.336;12.340;2022-10-16T16:36:17;19.00;1.00
2062;DHT22;11070;51.336;12.340;2022-10-16T16:38:44;18.90;1.00
2062;DHT22;11070;51.336;12.340;2022-10-16T16:41:25;18.90;1.00
2062;DHT22;11070;51.336;12.340;2022-10-16T16:43:51;18.90;1.00
2062;DHT22;11070;51.336;12.340;2022-10-16T16:46:18;18.80;1.00
2062;DHT22;11070;51.336;12.340;2022-10-16T16:48:44;18.80;1.00
2062;DHT22;11070;51.336;12.340;2022-10-16T16:51:12;18.70;1.00
2062;DHT22;11070;51.336;12.340;2022-10-16T16:53:41;18.70;1.00
2062;DHT22;11070;51.336;12.340;2022-10-16T16:56:07;18.60;1.00
2062;DHT22;11070;51.336;12.340;2022-10-16T16:58:34;18.60;1.00
2062;DHT22;11070;51.336;12.340;2022-10-16T17:01:03;18.50;1.00
2062;DHT22;11070;51.336;12.340;2022-10-16T17:03:30;18.40;1.00
2062;DHT22;11070;51.336;12.340;2022-10-16T17:06:03;18.40;1.00
2062;DHT22;11070;51.336;12.340;2022-10-16T17:08:30;18.40;1.00
2062;DHT22;11070;51.336;12.340;2022-10-16T17:10:56;18.30;1.00
2062;DHT22;11070;51.336;12.340;2022-10-16T17:13:27;18.40;1.00
2062;DHT22;11070;51.336;12.340;2022-10-16T17:15:53;18.40;1.00
2062;DHT22;11070;51.336;12.340;2022-10-16T17:18:21;18.50;1.00
2062;DHT22;11070;51.336;12.340;2022-10-16T17:20:47;18.50;1.00
2062;DHT22;11070;51.336;12.340;2022-10-16T17:23:15;18.50;1.00
2062;DHT22;11070;51.336;12.340;2022-10-16T17:25:41;18.40;1.00
2062;DHT22;11070;51.336;12.340;2022-10-16T17:28:08;18.30;1.00
2062;DHT22;11070;51.336;12.340;2022-10-16T17:30:41;18.30;1.80